MNE344 LYPG-LKPR
Flight info
| Callsign | MNE344 |
|---|---|
| Flight time | 1h 26m |
| Altitude | 38000 |
| Route | NIK DCT TODNI DCT LURID DCT INSAX DCT GIMBO DCT APRAQ |
| Aircraft | E195/M-SDE3GILORVW/S |
Departure
| Time | 2026-05-06 16:12 |
|---|---|
| Airport | Podgorica Airport / Podgorica Golubovci Airbase (LYPG) |
Arrival
| Time | 2026-05-06 17:39 |
|---|---|
| Airport | Václav Havel Airport Prague (LKPR) |
| Time | Latitude | Longitude | Altitude | Speed | Heading |
|---|---|---|---|---|---|
| 2026-05-06 15:49 | 42.36744 | 19.24752 | 104 ft | 0 kts | 322° |
| 2026-05-06 16:05 | 42.36748 | 19.24751 | 104 ft | 1 kts | 340° |
| 2026-05-06 16:06 | 42.36756 | 19.24761 | 103 ft | 2 kts | 50° |
| 2026-05-06 16:06 | 42.36749 | 19.24792 | 104 ft | 6 kts | 109° |
| 2026-05-06 16:06 | 42.36701 | 19.24839 | 104 ft | 10 kts | 181° |
| 2026-05-06 16:06 | 42.36639 | 19.24866 | 104 ft | 11 kts | 111° |
| 2026-05-06 16:07 | 42.36634 | 19.24958 | 108 ft | 8 kts | 93° |
| 2026-05-06 16:07 | 42.36601 | 19.25008 | 109 ft | 9 kts | 173° |
| 2026-05-06 16:07 | 42.36518 | 19.25003 | 107 ft | 15 kts | 184° |
| 2026-05-06 16:07 | 42.36399 | 19.24991 | 108 ft | 18 kts | 184° |
| 2026-05-06 16:08 | 42.36270 | 19.24978 | 107 ft | 19 kts | 184° |
| 2026-05-06 16:08 | 42.36128 | 19.24963 | 105 ft | 21 kts | 184° |
| 2026-05-06 16:08 | 42.35981 | 19.24949 | 106 ft | 22 kts | 185° |
| 2026-05-06 16:08 | 42.35829 | 19.24932 | 106 ft | 22 kts | 184° |
| 2026-05-06 16:09 | 42.35671 | 19.24916 | 106 ft | 23 kts | 184° |
| 2026-05-06 16:09 | 42.35505 | 19.24899 | 104 ft | 24 kts | 184° |
| 2026-05-06 16:09 | 42.35334 | 19.24883 | 104 ft | 25 kts | 184° |
| 2026-05-06 16:09 | 42.35154 | 19.24863 | 100 ft | 26 kts | 184° |
| 2026-05-06 16:10 | 42.35014 | 19.24850 | 104 ft | 20 kts | 184° |
| 2026-05-06 16:10 | 42.34885 | 19.24836 | 102 ft | 12 kts | 182° |
| 2026-05-06 16:10 | 42.34849 | 19.24907 | 105 ft | 9 kts | 95° |
| 2026-05-06 16:10 | 42.34844 | 19.24983 | 108 ft | 8 kts | 94° |
| 2026-05-06 16:11 | 42.34844 | 19.25062 | 108 ft | 8 kts | 67° |
| 2026-05-06 16:11 | 42.34885 | 19.25079 | 108 ft | 0 kts | 2° |
| 2026-05-06 16:11 | 42.35136 | 19.25106 | 110 ft | 74 kts | 4° |
| 2026-05-06 16:12 | 42.35897 | 19.25184 | 102 ft | 144 kts | 4° |
| 2026-05-06 16:12 | 42.37061 | 19.25298 | 377 ft | 185 kts | 3° |
| 2026-05-06 16:12 | 42.38361 | 19.25389 | 1157 ft | 191 kts | 2° |
| 2026-05-06 16:12 | 42.39715 | 19.25466 | 1851 ft | 203 kts | 2° |
| 2026-05-06 16:13 | 42.41165 | 19.25638 | 2553 ft | 213 kts | 5° |
| 2026-05-06 16:13 | 42.42654 | 19.25834 | 3300 ft | 216 kts | 5° |
| 2026-05-06 16:13 | 42.44161 | 19.26004 | 3986 ft | 220 kts | 5° |
| 2026-05-06 16:13 | 42.45696 | 19.26086 | 4633 ft | 222 kts | 353° |
| 2026-05-06 16:14 | 42.47074 | 19.25216 | 5216 ft | 223 kts | 313° |
| 2026-05-06 16:14 | 42.48048 | 19.23634 | 5858 ft | 222 kts | 304° |
| 2026-05-06 16:14 | 42.48975 | 19.21945 | 6459 ft | 225 kts | 304° |
| 2026-05-06 16:14 | 42.49929 | 19.20267 | 7048 ft | 225 kts | 305° |
| 2026-05-06 16:15 | 42.50899 | 19.18601 | 7631 ft | 225 kts | 305° |
| 2026-05-06 16:15 | 42.51872 | 19.16933 | 8217 ft | 226 kts | 305° |
| 2026-05-06 16:15 | 42.52839 | 19.15250 | 8788 ft | 226 kts | 304° |
| 2026-05-06 16:15 | 42.53804 | 19.13565 | 9368 ft | 227 kts | 304° |
| 2026-05-06 16:16 | 42.54840 | 19.11920 | 9789 ft | 238 kts | 315° |
| 2026-05-06 16:16 | 42.56249 | 19.10555 | 10063 ft | 260 kts | 324° |
| 2026-05-06 16:16 | 42.57854 | 19.09224 | 10220 ft | 286 kts | 326° |
| 2026-05-06 16:16 | 42.59595 | 19.07783 | 10679 ft | 297 kts | 325° |
| 2026-05-06 16:17 | 42.61360 | 19.06298 | 11431 ft | 299 kts | 325° |
| 2026-05-06 16:17 | 42.63131 | 19.04790 | 12184 ft | 301 kts | 324° |
| 2026-05-06 16:17 | 42.64909 | 19.03273 | 12976 ft | 302 kts | 324° |
| 2026-05-06 16:17 | 42.66690 | 19.01748 | 13751 ft | 305 kts | 324° |
| 2026-05-06 16:18 | 42.68496 | 19.00207 | 14416 ft | 308 kts | 324° |
| 2026-05-06 16:18 | 42.70320 | 18.98655 | 15071 ft | 311 kts | 324° |
| 2026-05-06 16:18 | 42.72136 | 18.97108 | 15706 ft | 314 kts | 324° |
| 2026-05-06 16:18 | 42.73991 | 18.95522 | 16336 ft | 317 kts | 324° |
| 2026-05-06 16:19 | 42.75866 | 18.93923 | 16964 ft | 319 kts | 325° |
| 2026-05-06 16:19 | 42.77773 | 18.92336 | 17564 ft | 325 kts | 328° |
| 2026-05-06 16:19 | 42.79861 | 18.90916 | 17733 ft | 344 kts | 333° |
| 2026-05-06 16:19 | 42.82102 | 18.89611 | 18125 ft | 354 kts | 334° |
| 2026-05-06 16:20 | 42.84377 | 18.88281 | 18691 ft | 357 kts | 334° |
| 2026-05-06 16:20 | 42.86651 | 18.86921 | 19340 ft | 357 kts | 333° |
| 2026-05-06 16:20 | 42.88901 | 18.85559 | 19930 ft | 360 kts | 333° |
| 2026-05-06 16:20 | 42.91194 | 18.84164 | 20549 ft | 362 kts | 332° |
| 2026-05-06 16:21 | 42.93505 | 18.82760 | 21149 ft | 365 kts | 332° |
| 2026-05-06 16:21 | 42.95833 | 18.81341 | 21709 ft | 368 kts | 332° |
| 2026-05-06 16:21 | 42.98178 | 18.79910 | 22257 ft | 370 kts | 332° |
| 2026-05-06 16:21 | 43.00538 | 18.78467 | 22788 ft | 373 kts | 331° |
| 2026-05-06 16:22 | 43.02921 | 18.77010 | 23281 ft | 377 kts | 331° |
| 2026-05-06 16:22 | 43.05323 | 18.75540 | 23764 ft | 379 kts | 331° |
| 2026-05-06 16:22 | 43.07741 | 18.74064 | 24159 ft | 382 kts | 331° |
| 2026-05-06 16:22 | 43.10141 | 18.72597 | 24591 ft | 384 kts | 331° |
| 2026-05-06 16:23 | 43.12582 | 18.71100 | 25033 ft | 385 kts | 331° |
| 2026-05-06 16:23 | 43.15033 | 18.69598 | 25463 ft | 386 kts | 331° |
| 2026-05-06 16:23 | 43.17489 | 18.68088 | 25903 ft | 388 kts | 331° |
| 2026-05-06 16:23 | 43.19957 | 18.66574 | 26363 ft | 390 kts | 331° |
| 2026-05-06 16:24 | 43.22435 | 18.65051 | 26769 ft | 392 kts | 331° |
| 2026-05-06 16:24 | 43.24928 | 18.63518 | 27148 ft | 393 kts | 331° |
| 2026-05-06 16:24 | 43.27397 | 18.61997 | 27532 ft | 395 kts | 331° |
| 2026-05-06 16:24 | 43.29906 | 18.60447 | 27889 ft | 397 kts | 331° |
| 2026-05-06 16:25 | 43.32427 | 18.58894 | 28257 ft | 398 kts | 331° |
| 2026-05-06 16:25 | 43.34962 | 18.57330 | 28587 ft | 400 kts | 331° |
| 2026-05-06 16:25 | 43.37509 | 18.55763 | 28943 ft | 401 kts | 331° |
| 2026-05-06 16:25 | 43.40041 | 18.54197 | 29486 ft | 398 kts | 331° |
| 2026-05-06 16:26 | 43.42563 | 18.52635 | 29998 ft | 396 kts | 331° |
| 2026-05-06 16:26 | 43.45068 | 18.51087 | 30454 ft | 394 kts | 331° |
| 2026-05-06 16:26 | 43.47533 | 18.49560 | 30837 ft | 394 kts | 331° |
| 2026-05-06 16:26 | 43.50029 | 18.48010 | 31124 ft | 395 kts | 331° |
| 2026-05-06 16:27 | 43.52540 | 18.46451 | 31464 ft | 395 kts | 331° |
| 2026-05-06 16:27 | 43.55042 | 18.44899 | 31769 ft | 396 kts | 330° |
| 2026-05-06 16:27 | 43.57557 | 18.43334 | 32011 ft | 397 kts | 330° |
| 2026-05-06 16:27 | 43.60077 | 18.41766 | 32308 ft | 397 kts | 330° |
| 2026-05-06 16:28 | 43.62586 | 18.40203 | 32617 ft | 396 kts | 330° |
| 2026-05-06 16:28 | 43.65097 | 18.38638 | 32925 ft | 395 kts | 330° |
| 2026-05-06 16:28 | 43.67567 | 18.37099 | 33232 ft | 395 kts | 330° |
| 2026-05-06 16:28 | 43.70071 | 18.35535 | 33520 ft | 395 kts | 330° |
| 2026-05-06 16:29 | 43.72582 | 18.33964 | 33775 ft | 396 kts | 331° |
| 2026-05-06 16:29 | 43.75094 | 18.32392 | 34056 ft | 396 kts | 330° |
| 2026-05-06 16:29 | 43.77605 | 18.30820 | 34283 ft | 396 kts | 331° |
| 2026-05-06 16:29 | 43.80107 | 18.29218 | 34509 ft | 396 kts | 330° |
| 2026-05-06 16:30 | 43.82598 | 18.27578 | 34772 ft | 395 kts | 330° |
| 2026-05-06 16:30 | 43.84234 | 18.26502 | 34972 ft | 394 kts | 330° |
| 2026-05-06 16:30 | 43.87509 | 18.24353 | 35294 ft | 393 kts | 330° |
| 2026-05-06 16:30 | 43.89980 | 18.22730 | 35502 ft | 393 kts | 330° |
| 2026-05-06 16:31 | 43.92450 | 18.21115 | 35656 ft | 394 kts | 329° |
| 2026-05-06 16:31 | 43.94936 | 18.19482 | 35775 ft | 396 kts | 329° |
| 2026-05-06 16:31 | 43.97423 | 18.17849 | 35955 ft | 395 kts | 329° |
| 2026-05-06 16:31 | 43.99916 | 18.16216 | 36090 ft | 395 kts | 329° |
| 2026-05-06 16:32 | 44.02394 | 18.14586 | 36277 ft | 394 kts | 329° |
| 2026-05-06 16:32 | 44.04872 | 18.12955 | 36455 ft | 394 kts | 329° |
| 2026-05-06 16:32 | 44.07313 | 18.11347 | 36612 ft | 393 kts | 329° |
| 2026-05-06 16:32 | 44.09787 | 18.09717 | 36729 ft | 394 kts | 329° |
| 2026-05-06 16:33 | 44.12261 | 18.08089 | 36835 ft | 393 kts | 329° |
| 2026-05-06 16:33 | 44.14740 | 18.06449 | 36868 ft | 396 kts | 329° |
| 2026-05-06 16:34 | 44.22228 | 18.01496 | 37156 ft | 396 kts | 329° |
| 2026-05-06 16:34 | 44.27174 | 17.98211 | 37342 ft | 396 kts | 329° |
| 2026-05-06 16:34 | 44.29656 | 17.96562 | 37488 ft | 395 kts | 329° |
| 2026-05-06 16:35 | 44.32131 | 17.94917 | 37597 ft | 395 kts | 329° |
| 2026-05-06 16:35 | 44.37087 | 17.91619 | 37822 ft | 392 kts | 329° |
| 2026-05-06 16:35 | 44.39526 | 17.89998 | 38101 ft | 388 kts | 329° |
| 2026-05-06 16:36 | 44.41965 | 17.88373 | 38058 ft | 389 kts | 329° |
| 2026-05-06 16:36 | 44.46863 | 17.85092 | 37918 ft | 396 kts | 329° |
| 2026-05-06 16:37 | 44.51855 | 17.81747 | 37927 ft | 400 kts | 329° |
| 2026-05-06 16:37 | 44.56898 | 17.78364 | 37926 ft | 404 kts | 329° |
| 2026-05-06 16:38 | 44.61988 | 17.74945 | 37908 ft | 407 kts | 329° |
| 2026-05-06 16:38 | 44.67117 | 17.71492 | 37920 ft | 410 kts | 329° |
| 2026-05-06 16:39 | 44.72246 | 17.68030 | 37920 ft | 414 kts | 329° |
| 2026-05-06 16:39 | 44.77465 | 17.64502 | 37908 ft | 418 kts | 329° |
| 2026-05-06 16:40 | 44.82731 | 17.60935 | 37913 ft | 421 kts | 329° |
| 2026-05-06 16:40 | 44.88033 | 17.57336 | 37910 ft | 424 kts | 329° |
| 2026-05-06 16:41 | 44.93331 | 17.53734 | 37906 ft | 426 kts | 329° |
| 2026-05-06 16:41 | 44.98671 | 17.50096 | 37911 ft | 426 kts | 329° |
| 2026-05-06 16:42 | 45.04015 | 17.46445 | 37896 ft | 427 kts | 328° |
| 2026-05-06 16:42 | 45.09358 | 17.42789 | 37908 ft | 427 kts | 328° |
| 2026-05-06 16:43 | 45.14667 | 17.39147 | 37904 ft | 427 kts | 329° |
| 2026-05-06 16:43 | 45.20032 | 17.35519 | 37903 ft | 427 kts | 329° |
| 2026-05-06 16:44 | 45.25396 | 17.31892 | 37907 ft | 427 kts | 329° |
| 2026-05-06 16:44 | 45.30752 | 17.28256 | 37911 ft | 427 kts | 328° |
| 2026-05-06 16:45 | 45.36073 | 17.24634 | 37902 ft | 428 kts | 329° |
| 2026-05-06 16:45 | 45.41445 | 17.20972 | 37903 ft | 429 kts | 329° |
| 2026-05-06 16:46 | 45.46826 | 17.17296 | 37903 ft | 429 kts | 329° |
| 2026-05-06 16:46 | 45.52211 | 17.13609 | 37911 ft | 430 kts | 329° |
| 2026-05-06 16:47 | 45.57559 | 17.09940 | 37901 ft | 429 kts | 329° |
| 2026-05-06 16:47 | 45.62948 | 17.06234 | 37903 ft | 430 kts | 329° |
| 2026-05-06 16:48 | 45.68341 | 17.02518 | 37905 ft | 431 kts | 329° |
| 2026-05-06 16:48 | 45.73718 | 16.98808 | 37898 ft | 426 kts | 329° |
| 2026-05-06 16:49 | 45.79023 | 16.95134 | 37897 ft | 427 kts | 329° |
| 2026-05-06 16:49 | 45.84381 | 16.91418 | 37896 ft | 427 kts | 329° |
| 2026-05-06 16:50 | 45.89729 | 16.87700 | 37896 ft | 427 kts | 329° |
| 2026-05-06 16:50 | 45.95081 | 16.83972 | 37888 ft | 428 kts | 329° |
| 2026-05-06 16:51 | 46.00402 | 16.80258 | 37897 ft | 427 kts | 329° |
| 2026-05-06 16:51 | 46.05756 | 16.76513 | 37891 ft | 428 kts | 329° |
| 2026-05-06 16:52 | 46.11102 | 16.72764 | 37895 ft | 428 kts | 329° |
| 2026-05-06 16:52 | 46.16456 | 16.69004 | 37895 ft | 427 kts | 329° |
| 2026-05-06 16:53 | 46.21771 | 16.65262 | 37886 ft | 428 kts | 329° |
| 2026-05-06 16:53 | 46.27132 | 16.61477 | 37882 ft | 429 kts | 329° |
| 2026-05-06 16:54 | 46.32493 | 16.57686 | 37888 ft | 429 kts | 329° |
| 2026-05-06 16:54 | 46.37827 | 16.53908 | 37883 ft | 429 kts | 329° |
| 2026-05-06 16:55 | 46.43192 | 16.50096 | 37883 ft | 430 kts | 329° |
| 2026-05-06 16:55 | 46.48559 | 16.46276 | 37874 ft | 430 kts | 329° |
| 2026-05-06 16:56 | 46.53931 | 16.42445 | 37871 ft | 430 kts | 329° |
| 2026-05-06 16:56 | 46.59292 | 16.38613 | 37872 ft | 429 kts | 329° |
| 2026-05-06 16:57 | 46.64620 | 16.34797 | 37874 ft | 429 kts | 329° |
| 2026-05-06 16:57 | 46.69978 | 16.30950 | 37871 ft | 429 kts | 329° |
| 2026-05-06 16:58 | 46.75338 | 16.27094 | 37865 ft | 430 kts | 329° |
| 2026-05-06 16:58 | 46.80694 | 16.23228 | 37864 ft | 429 kts | 328° |
| 2026-05-06 16:59 | 46.86014 | 16.19386 | 37871 ft | 429 kts | 328° |
| 2026-05-06 16:59 | 46.91371 | 16.15506 | 37856 ft | 430 kts | 328° |
| 2026-05-06 17:00 | 46.96731 | 16.11608 | 37861 ft | 430 kts | 328° |
| 2026-05-06 17:00 | 47.02096 | 16.07701 | 37845 ft | 430 kts | 328° |
| 2026-05-06 17:01 | 47.07407 | 16.03785 | 37850 ft | 430 kts | 328° |
| 2026-05-06 17:01 | 47.12751 | 15.99831 | 37851 ft | 430 kts | 328° |
| 2026-05-06 17:02 | 47.18104 | 15.95867 | 37843 ft | 431 kts | 328° |
| 2026-05-06 17:02 | 47.23450 | 15.91905 | 37844 ft | 431 kts | 328° |
| 2026-05-06 17:03 | 47.28774 | 15.87948 | 37833 ft | 432 kts | 327° |
| 2026-05-06 17:03 | 47.34137 | 15.83954 | 37850 ft | 433 kts | 327° |
| 2026-05-06 17:04 | 47.39522 | 15.79931 | 37824 ft | 435 kts | 327° |
| 2026-05-06 17:04 | 47.44882 | 15.75925 | 37829 ft | 435 kts | 327° |
| 2026-05-06 17:05 | 47.50275 | 15.71881 | 37817 ft | 435 kts | 327° |
| 2026-05-06 17:05 | 47.55668 | 15.67825 | 37811 ft | 434 kts | 327° |
| 2026-05-06 17:06 | 47.61066 | 15.63757 | 37797 ft | 436 kts | 326° |
| 2026-05-06 17:06 | 47.66474 | 15.59680 | 37809 ft | 437 kts | 326° |
| 2026-05-06 17:07 | 47.71858 | 15.55599 | 37772 ft | 437 kts | 326° |
| 2026-05-06 17:07 | 47.77271 | 15.51488 | 37773 ft | 437 kts | 326° |
| 2026-05-06 17:08 | 47.82691 | 15.47367 | 37764 ft | 437 kts | 326° |
| 2026-05-06 17:08 | 47.88107 | 15.43240 | 37741 ft | 437 kts | 326° |
| 2026-05-06 17:09 | 47.93481 | 15.39135 | 37724 ft | 437 kts | 326° |
| 2026-05-06 17:09 | 47.98872 | 15.35003 | 37744 ft | 435 kts | 326° |
| 2026-05-06 17:10 | 48.04266 | 15.30867 | 37737 ft | 436 kts | 326° |
| 2026-05-06 17:10 | 48.09645 | 15.26728 | 37719 ft | 434 kts | 326° |
| 2026-05-06 17:11 | 48.14972 | 15.22618 | 37738 ft | 434 kts | 326° |
| 2026-05-06 17:11 | 48.20335 | 15.18472 | 37706 ft | 434 kts | 326° |
| 2026-05-06 17:12 | 48.25701 | 15.14311 | 37704 ft | 435 kts | 326° |
| 2026-05-06 17:12 | 48.31073 | 15.10135 | 37696 ft | 435 kts | 326° |
| 2026-05-06 17:13 | 48.36387 | 15.06000 | 37703 ft | 432 kts | 326° |
| 2026-05-06 17:13 | 48.41727 | 15.01832 | 37706 ft | 433 kts | 326° |
| 2026-05-06 17:14 | 48.47070 | 14.97652 | 37707 ft | 433 kts | 326° |
| 2026-05-06 17:14 | 48.52413 | 14.93462 | 37704 ft | 433 kts | 326° |
| 2026-05-06 17:15 | 48.57721 | 14.89290 | 37698 ft | 433 kts | 326° |
| 2026-05-06 17:15 | 48.63078 | 14.85070 | 37712 ft | 435 kts | 326° |
| 2026-05-06 17:16 | 48.68453 | 14.80821 | 37706 ft | 436 kts | 326° |
| 2026-05-06 17:16 | 48.73838 | 14.76569 | 37708 ft | 437 kts | 327° |
| 2026-05-06 17:17 | 48.79400 | 14.72752 | 37698 ft | 439 kts | 329° |
| 2026-05-06 17:17 | 48.82151 | 14.70888 | 37553 ft | 438 kts | 329° |
| 2026-05-06 17:17 | 48.84905 | 14.69008 | 37184 ft | 429 kts | 329° |
| 2026-05-06 17:17 | 48.87582 | 14.67166 | 36939 ft | 417 kts | 328° |
| 2026-05-06 17:18 | 48.90184 | 14.65363 | 36704 ft | 407 kts | 328° |
| 2026-05-06 17:18 | 48.92742 | 14.63584 | 36445 ft | 403 kts | 327° |
| 2026-05-06 17:18 | 48.95301 | 14.61791 | 36219 ft | 408 kts | 328° |
| 2026-05-06 17:18 | 48.97902 | 14.59968 | 35962 ft | 415 kts | 328° |
| 2026-05-06 17:19 | 49.00532 | 14.58130 | 35707 ft | 417 kts | 328° |
| 2026-05-06 17:19 | 49.03140 | 14.56309 | 35450 ft | 418 kts | 328° |
| 2026-05-06 17:19 | 49.05782 | 14.54464 | 35223 ft | 418 kts | 327° |
| 2026-05-06 17:19 | 49.08422 | 14.52617 | 34976 ft | 418 kts | 327° |
| 2026-05-06 17:20 | 49.11065 | 14.50764 | 34725 ft | 418 kts | 327° |
| 2026-05-06 17:20 | 49.13709 | 14.48909 | 34574 ft | 415 kts | 327° |
| 2026-05-06 17:20 | 49.16334 | 14.47065 | 34481 ft | 420 kts | 327° |
| 2026-05-06 17:20 | 49.19020 | 14.45167 | 33759 ft | 428 kts | 327° |
| 2026-05-06 17:21 | 49.21721 | 14.43268 | 33014 ft | 426 kts | 327° |
| 2026-05-06 17:21 | 49.24404 | 14.41379 | 32288 ft | 423 kts | 327° |
| 2026-05-06 17:21 | 49.27037 | 14.39518 | 31599 ft | 423 kts | 327° |
| 2026-05-06 17:21 | 49.29704 | 14.37628 | 30937 ft | 422 kts | 327° |
| 2026-05-06 17:22 | 49.32370 | 14.35734 | 30299 ft | 422 kts | 328° |
| 2026-05-06 17:22 | 49.35032 | 14.33844 | 29632 ft | 422 kts | 328° |
| 2026-05-06 17:22 | 49.37695 | 14.31951 | 28870 ft | 422 kts | 328° |
| 2026-05-06 17:22 | 49.40360 | 14.30052 | 28121 ft | 424 kts | 328° |
| 2026-05-06 17:23 | 49.43039 | 14.28141 | 27399 ft | 424 kts | 328° |
| 2026-05-06 17:23 | 49.45701 | 14.26244 | 26706 ft | 421 kts | 329° |
| 2026-05-06 17:23 | 49.48352 | 14.24353 | 26008 ft | 417 kts | 329° |
| 2026-05-06 17:23 | 49.50975 | 14.22476 | 25327 ft | 414 kts | 329° |
| 2026-05-06 17:24 | 49.53575 | 14.20611 | 24682 ft | 411 kts | 329° |
| 2026-05-06 17:24 | 49.56151 | 14.18761 | 24051 ft | 408 kts | 329° |
| 2026-05-06 17:24 | 49.58677 | 14.16944 | 23428 ft | 405 kts | 329° |
| 2026-05-06 17:24 | 49.61224 | 14.15112 | 22717 ft | 402 kts | 329° |
| 2026-05-06 17:25 | 49.63801 | 14.13465 | 21976 ft | 404 kts | 339° |
| 2026-05-06 17:25 | 49.66603 | 14.12937 | 21269 ft | 412 kts | 1° |
| 2026-05-06 17:25 | 49.69433 | 14.13660 | 20596 ft | 411 kts | 10° |
| 2026-05-06 17:25 | 49.72212 | 14.14660 | 19917 ft | 409 kts | 10° |
| 2026-05-06 17:26 | 49.74972 | 14.15594 | 19261 ft | 405 kts | 9° |
| 2026-05-06 17:26 | 49.77732 | 14.16415 | 18612 ft | 401 kts | 8° |
| 2026-05-06 17:26 | 49.80462 | 14.17240 | 17966 ft | 399 kts | 9° |
| 2026-05-06 17:26 | 49.83153 | 14.18123 | 17259 ft | 391 kts | 12° |
| 2026-05-06 17:27 | 49.85600 | 14.19722 | 16568 ft | 387 kts | 34° |
| 2026-05-06 17:27 | 49.87475 | 14.22620 | 15898 ft | 378 kts | 58° |
| 2026-05-06 17:27 | 49.88698 | 14.26170 | 15250 ft | 370 kts | 66° |
| 2026-05-06 17:27 | 49.89778 | 14.29747 | 14663 ft | 363 kts | 66° |
| 2026-05-06 17:28 | 49.90861 | 14.33250 | 14175 ft | 358 kts | 65° |
| 2026-05-06 17:28 | 49.91756 | 14.36805 | 13693 ft | 351 kts | 79° |
| 2026-05-06 17:28 | 49.91857 | 14.40505 | 13168 ft | 340 kts | 104° |
| 2026-05-06 17:28 | 49.91051 | 14.43784 | 12653 ft | 322 kts | 126° |
| 2026-05-06 17:29 | 49.89775 | 14.46621 | 12124 ft | 313 kts | 130° |
| 2026-05-06 17:29 | 49.88538 | 14.49295 | 11619 ft | 305 kts | 130° |
| 2026-05-06 17:29 | 49.87339 | 14.51910 | 11121 ft | 294 kts | 130° |
| 2026-05-06 17:29 | 49.86174 | 14.54453 | 10608 ft | 284 kts | 130° |
| 2026-05-06 17:30 | 49.85051 | 14.56915 | 10125 ft | 276 kts | 130° |
| 2026-05-06 17:30 | 49.83959 | 14.59312 | 9725 ft | 268 kts | 130° |
| 2026-05-06 17:30 | 49.82892 | 14.61659 | 9337 ft | 265 kts | 130° |
| 2026-05-06 17:30 | 49.81877 | 14.64044 | 8813 ft | 269 kts | 120° |
| 2026-05-06 17:31 | 49.81475 | 14.66863 | 8290 ft | 271 kts | 90° |
| 2026-05-06 17:31 | 49.81999 | 14.69625 | 7783 ft | 269 kts | 60° |
| 2026-05-06 17:31 | 49.83307 | 14.71624 | 7287 ft | 266 kts | 29° |
| 2026-05-06 17:31 | 49.85069 | 14.72338 | 6988 ft | 262 kts | 357° |
| 2026-05-06 17:32 | 49.86798 | 14.71708 | 6657 ft | 258 kts | 333° |
| 2026-05-06 17:32 | 49.88345 | 14.70408 | 6567 ft | 248 kts | 321° |
| 2026-05-06 17:32 | 49.89517 | 14.68479 | 6363 ft | 247 kts | 300° |
| 2026-05-06 17:32 | 49.90450 | 14.66259 | 6325 ft | 246 kts | 303° |
| 2026-05-06 17:33 | 49.91539 | 14.64191 | 6303 ft | 249 kts | 307° |
| 2026-05-06 17:33 | 49.92612 | 14.62076 | 6252 ft | 251 kts | 302° |
| 2026-05-06 17:33 | 49.93632 | 14.59878 | 6077 ft | 250 kts | 303° |
| 2026-05-06 17:33 | 49.94689 | 14.57747 | 5813 ft | 248 kts | 305° |
| 2026-05-06 17:34 | 49.95734 | 14.55635 | 5513 ft | 246 kts | 304° |
| 2026-05-06 17:34 | 49.96747 | 14.53553 | 5204 ft | 242 kts | 304° |
| 2026-05-06 17:34 | 49.97429 | 14.52153 | 4986 ft | 237 kts | 304° |
| 2026-05-06 17:34 | 49.98706 | 14.49526 | 4614 ft | 221 kts | 305° |
| 2026-05-06 17:35 | 49.99605 | 14.47670 | 4311 ft | 209 kts | 304° |
| 2026-05-06 17:35 | 50.00468 | 14.45895 | 4037 ft | 204 kts | 305° |
| 2026-05-06 17:35 | 50.01312 | 14.44137 | 3759 ft | 201 kts | 305° |
| 2026-05-06 17:36 | 50.02669 | 14.41369 | 3324 ft | 187 kts | 307° |
| 2026-05-06 17:36 | 50.03431 | 14.39786 | 3078 ft | 179 kts | 307° |
| 2026-05-06 17:36 | 50.04168 | 14.38271 | 2848 ft | 172 kts | 307° |
| 2026-05-06 17:36 | 50.04876 | 14.36806 | 2625 ft | 168 kts | 307° |
| 2026-05-06 17:37 | 50.05803 | 14.34889 | 2350 ft | 165 kts | 308° |
| 2026-05-06 17:37 | 50.06474 | 14.33506 | 2122 ft | 156 kts | 308° |
| 2026-05-06 17:37 | 50.07108 | 14.32182 | 1845 ft | 151 kts | 308° |
| 2026-05-06 17:37 | 50.07727 | 14.30897 | 1670 ft | 148 kts | 308° |
| 2026-05-06 17:38 | 50.08139 | 14.30033 | 1559 ft | 152 kts | 308° |
| 2026-05-06 17:38 | 50.08777 | 14.28714 | 1342 ft | 152 kts | 308° |
| 2026-05-06 17:38 | 50.09405 | 14.27424 | 1211 ft | 140 kts | 308° |
| 2026-05-06 17:38 | 50.09910 | 14.26382 | 1198 ft | 97 kts | 307° |
| 2026-05-06 17:39 | 50.10243 | 14.25729 | 1186 ft | 20 kts | 323° |
| 2026-05-06 17:39 | 50.10374 | 14.25657 | 1183 ft | 17 kts | 356° |
| 2026-05-06 17:39 | 50.10421 | 14.25659 | 1182 ft | 3 kts | 3° |
| 2026-05-06 17:40 | 50.10429 | 14.25660 | 1182 ft | 3 kts | 7° |
| 2026-05-06 17:40 | 50.10469 | 14.25674 | 1178 ft | 9 kts | 16° |
| 2026-05-06 17:41 | 50.10549 | 14.25732 | 1173 ft | 16 kts | 34° |
| 2026-05-06 17:41 | 50.10650 | 14.25840 | 1171 ft | 19 kts | 34° |
| 2026-05-06 17:41 | 50.10765 | 14.25964 | 1169 ft | 21 kts | 34° |
| 2026-05-06 17:41 | 50.10874 | 14.26079 | 1169 ft | 20 kts | 34° |
| 2026-05-06 17:42 | 50.10978 | 14.26191 | 1165 ft | 11 kts | 33° |
| 2026-05-06 17:42 | 50.11000 | 14.26214 | 1168 ft | 0 kts | 33° |
| 2026-05-06 17:44 | 50.11004 | 14.26217 | 1168 ft | 3 kts | 33° |
| 2026-05-06 17:45 | 50.11047 | 14.26261 | 1165 ft | 11 kts | 34° |
| 2026-05-06 17:45 | 50.11083 | 14.26363 | 1168 ft | 10 kts | 97° |
| 2026-05-06 17:45 | 50.11074 | 14.26466 | 1171 ft | 10 kts | 97° |
| 2026-05-06 17:45 | 50.11055 | 14.26567 | 1171 ft | 10 kts | 121° |
| 2026-05-06 17:46 | 50.10997 | 14.26640 | 1171 ft | 12 kts | 146° |
| 2026-05-06 17:46 | 50.10929 | 14.26712 | 1173 ft | 9 kts | 140° |
| 2026-05-06 17:46 | 50.10897 | 14.26719 | 1172 ft | 5 kts | 202° |
| 2026-05-06 17:46 | 50.10881 | 14.26702 | 1172 ft | 2 kts | 214° |
| 2026-05-06 17:47 | 50.10878 | 14.26699 | 1173 ft | 0 kts | 214° |